sensor_id;sensor_type;location;lat;lon;timestamp;pressure;altitude;pressure_sealevel;temperature;humidity
78337;BME280;67610;51.588;7.002;2023-04-09T00:01:45;101839.72;;;9.85;64.34
78337;BME280;67610;51.588;7.002;2023-04-09T00:04:12;101851.22;;;9.84;64.35
78337;BME280;67610;51.588;7.002;2023-04-09T00:06:37;101850.00;;;9.77;64.35
78337;BME280;67610;51.588;7.002;2023-04-09T00:09:03;101857.38;;;9.72;64.52
78337;BME280;67610;51.588;7.002;2023-04-09T00:11:28;101846.75;;;9.63;65.10
78337;BME280;67610;51.588;7.002;2023-04-09T00:13:53;101848.44;;;9.64;64.74
78337;BME280;67610;51.588;7.002;2023-04-09T00:16:19;101850.44;;;9.60;65.14
78337;BME280;67610;51.588;7.002;2023-04-09T00:18:44;101847.31;;;9.55;65.11
78337;BME280;67610;51.588;7.002;2023-04-09T00:21:10;101849.56;;;9.49;65.13
78337;BME280;67610;51.588;7.002;2023-04-09T00:23:35;101847.44;;;9.54;65.12
78337;BME280;67610;51.588;7.002;2023-04-09T00:26:01;101842.31;;;9.52;64.94
78337;BME280;67610;51.588;7.002;2023-04-09T00:28:26;101844.06;;;9.41;65.39
78337;BME280;67610;51.588;7.002;2023-04-09T00:30:52;101846.91;;;9.38;65.56
78337;BME280;67610;51.588;7.002;2023-04-09T00:33:17;101836.63;;;9.35;65.51
78337;BME280;67610;51.588;7.002;2023-04-09T00:35:42;101844.00;;;9.30;65.80
78337;BME280;67610;51.588;7.002;2023-04-09T00:38:08;101833.75;;;9.27;65.57
78337;BME280;67610;51.588;7.002;2023-04-09T00:40:33;101843.03;;;9.20;65.90
78337;BME280;67610;51.588;7.002;2023-04-09T00:42:58;101841.25;;;9.20;65.83
78337;BME280;67610;51.588;7.002;2023-04-09T00:45:25;101839.06;;;9.14;65.76
78337;BME280;67610;51.588;7.002;2023-04-09T00:47:50;101844.53;;;9.11;65.63
78337;BME280;67610;51.588;7.002;2023-04-09T00:50:16;101838.44;;;9.10;65.69
78337;BME280;67610;51.588;7.002;2023-04-09T00:52:41;101840.56;;;9.05;66.00
78337;BME280;67610;51.588;7.002;2023-04-09T00:55:08;101838.06;;;9.04;66.01
78337;BME280;67610;51.588;7.002;2023-04-09T00:57:34;101841.25;;;8.96;66.25
78337;BME280;67610;51.588;7.002;2023-04-09T01:00:00;101844.00;;;8.95;66.20
78337;BME280;67610;51.588;7.002;2023-04-09T01:02:25;101841.59;;;8.92;65.97
78337;BME280;67610;51.588;7.002;2023-04-09T01:04:51;101842.84;;;8.86;66.47
78337;BME280;67610;51.588;7.002;2023-04-09T01:07:22;101839.91;;;8.91;66.34
78337;BME280;67610;51.588;7.002;2023-04-09T01:10:00;101846.91;;;8.90;66.47
78337;BME280;67610;51.588;7.002;2023-04-09T01:15:13;101834.78;;;8.89;66.33
78337;BME280;67610;51.588;7.002;2023-04-09T01:17:49;101834.78;;;8.89;66.12
78337;BME280;67610;51.588;7.002;2023-04-09T01:20:39;101838.25;;;8.90;66.06
78337;BME280;67610;51.588;7.002;2023-04-09T01:23:33;101840.63;;;8.93;65.98
78337;BME280;67610;51.588;7.002;2023-04-09T01:28:39;101840.84;;;8.90;65.97
78337;BME280;67610;51.588;7.002;2023-04-09T01:31:13;101834.03;;;8.87;65.88
78337;BME280;67610;51.588;7.002;2023-04-09T01:33:40;101839.28;;;8.87;66.06
78337;BME280;67610;51.588;7.002;2023-04-09T01:36:06;101840.22;;;8.86;66.25
78337;BME280;67610;51.588;7.002;2023-04-09T01:38:34;101836.88;;;8.84;66.03
78337;BME280;67610;51.588;7.002;2023-04-09T01:41:00;101843.31;;;8.80;66.54
78337;BME280;67610;51.588;7.002;2023-04-09T01:43:26;101837.09;;;8.81;66.05
78337;BME280;67610;51.588;7.002;2023-04-09T01:45:52;101834.94;;;8.75;66.17
78337;BME280;67610;51.588;7.002;2023-04-09T01:48:19;101832.50;;;8.72;66.54
78337;BME280;67610;51.588;7.002;2023-04-09T01:50:45;101834.41;;;8.70;66.36
78337;BME280;67610;51.588;7.002;2023-04-09T01:53:11;101840.63;;;8.69;66.34
78337;BME280;67610;51.588;7.002;2023-04-09T01:55:39;101833.91;;;8.65;66.67
78337;BME280;67610;51.588;7.002;2023-04-09T01:58:04;101837.56;;;8.63;66.43
78337;BME280;67610;51.588;7.002;2023-04-09T02:00:35;101837.50;;;8.64;66.51
78337;BME280;67610;51.588;7.002;2023-04-09T02:03:21;101839.47;;;8.61;66.53
78337;BME280;67610;51.588;7.002;2023-04-09T02:05:59;101836.38;;;8.56;66.41
78337;BME280;67610;51.588;7.002;2023-04-09T02:08:29;101835.84;;;8.51;66.30
78337;BME280;67610;51.588;7.002;2023-04-09T02:10:57;101836.19;;;8.46;66.57
78337;BME280;67610;51.588;7.002;2023-04-09T02:13:28;101831.13;;;8.43;66.51
78337;BME280;67610;51.588;7.002;2023-04-09T02:15:55;101834.63;;;8.31;67.33
78337;BME280;67610;51.588;7.002;2023-04-09T02:18:25;101832.22;;;8.28;66.89
78337;BME280;67610;51.588;7.002;2023-04-09T02:20:52;101828.09;;;8.24;67.26
78337;BME280;67610;51.588;7.002;2023-04-09T02:23:18;101828.34;;;8.21;67.49
78337;BME280;67610;51.588;7.002;2023-04-09T02:25:43;101820.69;;;8.18;67.40
78337;BME280;67610;51.588;7.002;2023-04-09T02:28:09;101821.84;;;8.14;67.57
78337;BME280;67610;51.588;7.002;2023-04-09T02:30:34;101815.03;;;8.11;67.42
78337;BME280;67610;51.588;7.002;2023-04-09T02:32:59;101820.47;;;8.08;68.06
78337;BME280;67610;51.588;7.002;2023-04-09T02:35:25;101816.59;;;8.01;67.73
78337;BME280;67610;51.588;7.002;2023-04-09T02:37:50;101809.06;;;7.97;67.88
78337;BME280;67610;51.588;7.002;2023-04-09T02:40:16;101814.41;;;7.95;68.06
78337;BME280;67610;51.588;7.002;2023-04-09T02:42:41;101812.84;;;7.93;68.19
78337;BME280;67610;51.588;7.002;2023-04-09T02:45:07;101808.00;;;7.87;68.57
78337;BME280;67610;51.588;7.002;2023-04-09T02:47:33;101810.34;;;7.79;68.54
78337;BME280;67610;51.588;7.002;2023-04-09T02:49:58;101812.09;;;7.78;68.49
78337;BME280;67610;51.588;7.002;2023-04-09T02:52:23;101802.06;;;7.72;68.93
78337;BME280;67610;51.588;7.002;2023-04-09T02:54:51;101800.06;;;7.75;68.57
78337;BME280;67610;51.588;7.002;2023-04-09T02:57:16;101797.25;;;7.79;68.58
78337;BME280;67610;51.588;7.002;2023-04-09T02:59:43;101795.13;;;7.71;68.55
78337;BME280;67610;51.588;7.002;2023-04-09T03:02:08;101799.53;;;7.70;68.48
78337;BME280;67610;51.588;7.002;2023-04-09T03:04:33;101793.03;;;7.63;68.92
78337;BME280;67610;51.588;7.002;2023-04-09T03:07:00;101796.19;;;7.56;69.07
78337;BME280;67610;51.588;7.002;2023-04-09T03:09:25;101795.44;;;7.54;69.33
78337;BME280;67610;51.588;7.002;2023-04-09T03:11:51;101787.69;;;7.52;69.26
78337;BME280;67610;51.588;7.002;2023-04-09T03:14:16;101793.13;;;7.49;69.17
78337;BME280;67610;51.588;7.002;2023-04-09T03:16:42;101793.34;;;7.46;69.82
78337;BME280;67610;51.588;7.002;2023-04-09T03:19:07;101792.09;;;7.39;69.82
78337;BME280;67610;51.588;7.002;2023-04-09T03:21:32;101783.81;;;7.33;70.00
78337;BME280;67610;51.588;7.002;2023-04-09T03:23:58;101785.78;;;7.29;69.96
78337;BME280;67610;51.588;7.002;2023-04-09T03:26:23;101781.09;;;7.34;69.63
78337;BME280;67610;51.588;7.002;2023-04-09T03:28:49;101777.75;;;7.32;69.48
78337;BME280;67610;51.588;7.002;2023-04-09T03:31:15;101777.00;;;7.30;70.04
78337;BME280;67610;51.588;7.002;2023-04-09T03:33:40;101780.66;;;7.28;69.74
78337;BME280;67610;51.588;7.002;2023-04-09T03:36:06;101777.19;;;7.27;69.77
78337;BME280;67610;51.588;7.002;2023-04-09T03:38:31;101777.94;;;7.29;69.87
78337;BME280;67610;51.588;7.002;2023-04-09T03:40:57;101783.47;;;7.25;69.96
78337;BME280;67610;51.588;7.002;2023-04-09T03:43:22;101778.34;;;7.23;69.86
78337;BME280;67610;51.588;7.002;2023-04-09T03:45:47;101777.41;;;7.24;69.81
78337;BME280;67610;51.588;7.002;2023-04-09T03:48:13;101774.03;;;7.22;69.87
78337;BME280;67610;51.588;7.002;2023-04-09T03:50:39;101774.28;;;7.19;69.66
78337;BME280;67610;51.588;7.002;2023-04-09T03:53:05;101777.09;;;7.16;69.93
78337;BME280;67610;51.588;7.002;2023-04-09T03:55:31;101773.75;;;7.14;69.81
78337;BME280;67610;51.588;7.002;2023-04-09T03:57:56;101773.75;;;7.14;69.98
78337;BME280;67610;51.588;7.002;2023-04-09T04:00:21;101777.28;;;7.13;69.70
78337;BME280;67610;51.588;7.002;2023-04-09T04:02:47;101779.16;;;7.11;70.12
78337;BME280;67610;51.588;7.002;2023-04-09T04:05:12;101776.00;;;7.06;70.38
78337;BME280;67610;51.588;7.002;2023-04-09T04:07:38;101776.84;;;7.07;70.09
78337;BME280;67610;51.588;7.002;2023-04-09T04:10:05;101780.50;;;7.04;70.06
78337;BME280;67610;51.588;7.002;2023-04-09T04:12:30;101776.31;;;7.01;70.52
78337;BME280;67610;51.588;7.002;2023-04-09T04:14:57;101775.69;;;6.98;70.84
78337;BME280;67610;51.588;7.002;2023-04-09T04:17:22;101776.72;;;6.95;70.45
78337;BME280;67610;51.588;7.002;2023-04-09T04:19:48;101780.06;;;6.97;70.08
78337;BME280;67610;51.588;7.002;2023-04-09T04:22:13;101780.25;;;6.94;70.51
78337;BME280;67610;51.588;7.002;2023-04-09T04:24:38;101775.34;;;6.90;70.50
78337;BME280;67610;51.588;7.002;2023-04-09T04:27:04;101781.59;;;6.87;70.71
78337;BME280;67610;51.588;7.002;2023-04-09T04:29:29;101775.75;;;6.84;70.81
78337;BME280;67610;51.588;7.002;2023-04-09T04:31:54;101785.34;;;6.83;70.61
78337;BME280;67610;51.588;7.002;2023-04-09T04:34:20;101788.09;;;6.82;70.93
78337;BME280;67610;51.588;7.002;2023-04-09T04:36:45;101777.81;;;6.79;71.12
78337;BME280;67610;51.588;7.002;2023-04-09T04:39:10;101784.94;;;6.77;70.90
78337;BME280;67610;51.588;7.002;2023-04-09T04:41:36;101778.84;;;6.76;70.86
78337;BME280;67610;51.588;7.002;2023-04-09T04:44:01;101784.81;;;6.78;70.91
78337;BME280;67610;51.588;7.002;2023-04-09T04:46:27;101791.00;;;6.77;70.57
78337;BME280;67610;51.588;7.002;2023-04-09T04:48:52;101780.53;;;6.77;70.65
78337;BME280;67610;51.588;7.002;2023-04-09T04:51:18;101786.50;;;6.79;70.81
78337;BME280;67610;51.588;7.002;2023-04-09T04:53:43;101780.53;;;6.77;70.52
78337;BME280;67610;51.588;7.002;2023-04-09T04:56:15;101781.34;;;6.78;71.13
78337;BME280;67610;51.588;7.002;2023-04-09T04:58:41;101785.84;;;6.76;70.81
78337;BME280;67610;51.588;7.002;2023-04-09T05:01:06;101787.53;;;6.77;70.78
78337;BME280;67610;51.588;7.002;2023-04-09T05:03:32;101785.84;;;6.76;70.52
78337;BME280;67610;51.588;7.002;2023-04-09T05:05:57;101789.31;;;6.76;70.82
78337;BME280;67610;51.588;7.002;2023-04-09T05:08:24;101789.31;;;6.76;70.89
78337;BME280;67610;51.588;7.002;2023-04-09T05:10:49;101788.47;;;6.76;70.76
78337;BME280;67610;51.588;7.002;2023-04-09T05:13:15;101781.34;;;6.78;70.83
78337;BME280;67610;51.588;7.002;2023-04-09T05:15:40;101783.97;;;6.78;70.64
78337;BME280;67610;51.588;7.002;2023-04-09T05:18:06;101779.59;;;6.78;70.64
78337;BME280;67610;51.588;7.002;2023-04-09T05:20:33;101782.13;;;6.80;70.79
78337;BME280;67610;51.588;7.002;2023-04-09T05:22:59;101780.88;;;6.85;70.90
78337;BME280;67610;51.588;7.002;2023-04-09T05:25:25;101784.13;;;6.89;71.00
78337;BME280;67610;51.588;7.002;2023-04-09T05:27:50;101791.56;;;6.95;70.95
78337;BME280;67610;51.588;7.002;2023-04-09T05:30:16;101791.16;;;7.01;70.84
78337;BME280;67610;51.588;7.002;2023-04-09T05:32:41;101789.09;;;7.06;70.61
78337;BME280;67610;51.588;7.002;2023-04-09T05:35:07;101791.31;;;7.12;70.66
78337;BME280;67610;51.588;7.002;2023-04-09T05:37:32;101788.28;;;7.18;70.52
78337;BME280;67610;51.588;7.002;2023-04-09T05:39:57;101794.47;;;7.30;70.50
78337;BME280;67610;51.588;7.002;2023-04-09T05:42:23;101787.59;;;7.41;70.33
78337;BME280;67610;51.588;7.002;2023-04-09T05:44:48;101790.50;;;7.49;69.86
78337;BME280;67610;51.588;7.002;2023-04-09T05:47:14;101785.41;;;7.60;69.66
78337;BME280;67610;51.588;7.002;2023-04-09T05:49:39;101782.16;;;7.69;69.18
78337;BME280;67610;51.588;7.002;2023-04-09T05:52:04;101788.53;;;7.78;69.28
78337;BME280;67610;51.588;7.002;2023-04-09T05:54:30;101785.09;;;7.90;69.09
78337;BME280;67610;51.588;7.002;2023-04-09T05:56:55;101781.69;;;8.01;69.03
78337;BME280;67610;51.588;7.002;2023-04-09T05:59:21;101788.38;;;8.17;68.38
78337;BME280;67610;51.588;7.002;2023-04-09T06:01:46;101794.47;;;8.30;68.33
78337;BME280;67610;51.588;7.002;2023-04-09T06:04:12;101788.03;;;8.47;67.94
78337;BME280;67610;51.588;7.002;2023-04-09T06:06:38;101792.91;;;8.64;67.51
78337;BME280;67610;51.588;7.002;2023-04-09T06:09:03;101792.91;;;8.88;67.27
78337;BME280;67610;51.588;7.002;2023-04-09T06:11:29;101785.72;;;9.13;66.94
78337;BME280;67610;51.588;7.002;2023-04-09T06:13:55;101787.94;;;9.42;66.03
78337;BME280;67610;51.588;7.002;2023-04-09T06:16:20;101783.69;;;9.63;64.91
78337;BME280;67610;51.588;7.002;2023-04-09T06:18:45;101794.84;;;9.89;64.86
78337;BME280;67610;51.588;7.002;2023-04-09T06:21:13;101798.09;;;10.14;64.16
78337;BME280;67610;51.588;7.002;2023-04-09T06:23:39;101797.69;;;10.41;63.22
78337;BME280;67610;51.588;7.002;2023-04-09T06:26:05;101787.63;;;10.68;62.76
78337;BME280;67610;51.588;7.002;2023-04-09T06:28:30;101788.84;;;10.96;61.46
78337;BME280;67610;51.588;7.002;2023-04-09T06:30:56;101794.69;;;11.20;61.42
78337;BME280;67610;51.588;7.002;2023-04-09T06:33:22;101803.06;;;11.46;60.39
78337;BME280;67610;51.588;7.002;2023-04-09T06:35:47;101801.16;;;11.68;59.90
78337;BME280;67610;51.588;7.002;2023-04-09T06:38:14;101803.09;;;11.97;59.26
78337;BME280;67610;51.588;7.002;2023-04-09T06:40:40;101808.34;;;12.27;58.76
78337;BME280;67610;51.588;7.002;2023-04-09T06:43:06;101803.19;;;12.55;57.80
78337;BME280;67610;51.588;7.002;2023-04-09T06:45:32;101802.50;;;12.82;56.11
78337;BME280;67610;51.588;7.002;2023-04-09T06:47:58;101803.38;;;13.02;55.79
78337;BME280;67610;51.588;7.002;2023-04-09T06:50:24;101800.03;;;13.28;54.27
78337;BME280;67610;51.588;7.002;2023-04-09T06:52:50;101801.69;;;13.49;53.96
78337;BME280;67610;51.588;7.002;2023-04-09T06:55:16;101808.06;;;13.65;52.46
78337;BME280;67610;51.588;7.002;2023-04-09T06:57:41;101801.28;;;13.90;52.76
78337;BME280;67610;51.588;7.002;2023-04-09T07:00:08;101805.50;;;14.20;51.89
78337;BME280;67610;51.588;7.002;2023-04-09T07:02:34;101808.31;;;14.45;51.32
78337;BME280;67610;51.588;7.002;2023-04-09T07:04:59;101813.72;;;14.71;50.59
78337;BME280;67610;51.588;7.002;2023-04-09T07:07:25;101810.72;;;15.01;49.59
78337;BME280;67610;51.588;7.002;2023-04-09T07:09:51;101806.31;;;15.27;48.20
78337;BME280;67610;51.588;7.002;2023-04-09T07:12:30;101815.50;;;15.51;46.81
78337;BME280;67610;51.588;7.002;2023-04-09T07:15:01;101821.22;;;15.64;46.16
78337;BME280;67610;51.588;7.002;2023-04-09T07:17:27;101821.19;;;15.81;45.66
78337;BME280;67610;51.588;7.002;2023-04-09T07:19:52;101824.59;;;15.99;45.68
78337;BME280;67610;51.588;7.002;2023-04-09T07:22:21;101819.38;;;16.16;45.50
78337;BME280;67610;51.588;7.002;2023-04-09T07:24:47;101822.13;;;16.40;45.27
78337;BME280;67610;51.588;7.002;2023-04-09T07:27:18;101821.25;;;16.73;45.02
78337;BME280;67610;51.588;7.002;2023-04-09T07:29:44;101824.63;;;17.07;44.35
78337;BME280;67610;51.588;7.002;2023-04-09T07:32:10;101827.00;;;17.42;43.89
78337;BME280;67610;51.588;7.002;2023-04-09T07:34:36;101829.66;;;17.83;43.48
78337;BME280;67610;51.588;7.002;2023-04-09T07:37:02;101826.84;;;18.23;42.12
78337;BME280;67610;51.588;7.002;2023-04-09T07:39:27;101824.44;;;18.52;41.19
78337;BME280;67610;51.588;7.002;2023-04-09T07:41:53;101822.59;;;18.83;40.51
78337;BME280;67610;51.588;7.002;2023-04-09T07:44:18;101825.84;;;19.16;39.53
78337;BME280;67610;51.588;7.002;2023-04-09T07:46:44;101822.88;;;19.34;38.70
78337;BME280;67610;51.588;7.002;2023-04-09T07:49:10;101827.75;;;19.53;37.61
78337;BME280;67610;51.588;7.002;2023-04-09T07:51:35;101819.13;;;19.66;35.73
78337;BME280;67610;51.588;7.002;2023-04-09T07:54:01;101815.25;;;19.83;34.05
78337;BME280;67610;51.588;7.002;2023-04-09T07:56:26;101822.63;;;19.81;35.30
78337;BME280;67610;51.588;7.002;2023-04-09T07:58:57;101814.81;;;19.79;34.91
78337;BME280;67610;51.588;7.002;2023-04-09T08:01:23;101821.34;;;19.91;35.67
78337;BME280;67610;51.588;7.002;2023-04-09T08:03:50;101822.06;;;20.14;35.58
78337;BME280;67610;51.588;7.002;2023-04-09T08:06:15;101820.44;;;20.43;34.53
78337;BME280;67610;51.588;7.002;2023-04-09T08:08:41;101822.31;;;20.63;35.10
78337;BME280;67610;51.588;7.002;2023-04-09T08:11:07;101815.69;;;20.95;34.82
78337;BME280;67610;51.588;7.002;2023-04-09T08:13:32;101817.06;;;21.27;34.28
78337;BME280;67610;51.588;7.002;2023-04-09T08:16:01;101817.06;;;21.54;32.39
78337;BME280;67610;51.588;7.002;2023-04-09T08:18:28;101818.41;;;21.72;32.72
78337;BME280;67610;51.588;7.002;2023-04-09T08:20:54;101814.06;;;21.92;30.69
78337;BME280;67610;51.588;7.002;2023-04-09T08:23:20;101812.59;;;21.89;31.36
78337;BME280;67610;51.588;7.002;2023-04-09T08:25:46;101813.31;;;22.04;30.19
78337;BME280;67610;51.588;7.002;2023-04-09T08:28:11;101817.59;;;21.92;30.21
78337;BME280;67610;51.588;7.002;2023-04-09T08:30:36;101812.66;;;21.96;30.57
78337;BME280;67610;51.588;7.002;2023-04-09T08:33:02;101809.97;;;21.96;30.39
78337;BME280;67610;51.588;7.002;2023-04-09T08:35:31;101817.84;;;22.04;30.77
78337;BME280;67610;51.588;7.002;2023-04-09T08:37:56;101813.34;;;22.11;30.85
78337;BME280;67610;51.588;7.002;2023-04-09T08:40:22;101812.59;;;22.30;30.24
78337;BME280;67610;51.588;7.002;2023-04-09T08:42:54;101819.41;;;22.26;28.70
78337;BME280;67610;51.588;7.002;2023-04-09T08:45:21;101811.41;;;22.39;29.79
78337;BME280;67610;51.588;7.002;2023-04-09T08:47:48;101811.50;;;22.18;29.39
78337;BME280;67610;51.588;7.002;2023-04-09T08:50:15;101809.31;;;22.28;29.80
78337;BME280;67610;51.588;7.002;2023-04-09T08:52:42;101823.44;;;22.56;28.57
78337;BME280;67610;51.588;7.002;2023-04-09T08:55:10;101819.53;;;22.59;29.48
78337;BME280;67610;51.588;7.002;2023-04-09T08:57:40;101813.47;;;22.84;28.93
78337;BME280;67610;51.588;7.002;2023-04-09T09:00:06;101820.91;;;23.09;28.24
78337;BME280;67610;51.588;7.002;2023-04-09T09:02:32;101820.72;;;23.17;25.99
78337;BME280;67610;51.588;7.002;2023-04-09T09:04:58;101819.09;;;23.29;27.38
78337;BME280;67610;51.588;7.002;2023-04-09T09:07:27;101810.84;;;23.50;26.52
78337;BME280;67610;51.588;7.002;2023-04-09T09:09:58;101824.03;;;23.71;26.38
78337;BME280;67610;51.588;7.002;2023-04-09T09:12:39;101818.84;;;23.89;26.32
78337;BME280;67610;51.588;7.002;2023-04-09T09:15:26;101814.50;;;24.08;25.56
78337;BME280;67610;51.588;7.002;2023-04-09T09:17:57;101807.19;;;24.28;25.77
78337;BME280;67610;51.588;7.002;2023-04-09T09:20:23;101799.28;;;24.40;26.50
78337;BME280;67610;51.588;7.002;2023-04-09T09:22:51;101804.41;;;24.48;25.78
78337;BME280;67610;51.588;7.002;2023-04-09T09:25:17;101807.47;;;24.58;25.20
78337;BME280;67610;51.588;7.002;2023-04-09T09:27:42;101798.06;;;24.80;25.28
78337;BME280;67610;51.588;7.002;2023-04-09T09:30:20;101800.38;;;24.70;23.81
78337;BME280;67610;51.588;7.002;2023-04-09T09:32:46;101790.03;;;24.22;25.23
78337;BME280;67610;51.588;7.002;2023-04-09T09:35:11;101785.34;;;24.49;25.06
78337;BME280;67610;51.588;7.002;2023-04-09T09:37:37;101775.50;;;24.37;25.35
78337;BME280;67610;51.588;7.002;2023-04-09T09:40:02;101783.84;;;24.22;25.43
78337;BME280;67610;51.588;7.002;2023-04-09T09:42:28;101774.22;;;23.88;25.85
78337;BME280;67610;51.588;7.002;2023-04-09T09:44:54;101773.97;;;24.03;25.63
78337;BME280;67610;51.588;7.002;2023-04-09T09:47:21;101762.28;;;24.28;24.37
78337;BME280;67610;51.588;7.002;2023-04-09T09:49:48;101760.59;;;24.41;24.81
78337;BME280;67610;51.588;7.002;2023-04-09T09:52:24;101768.69;;;24.72;24.62
78337;BME280;67610;51.588;7.002;2023-04-09T09:54:54;101764.50;;;24.82;22.05
78337;BME280;67610;51.588;7.002;2023-04-09T09:57:24;101760.25;;;24.31;23.08
78337;BME280;67610;51.588;7.002;2023-04-09T09:59:53;101753.31;;;23.90;23.50
78337;BME280;67610;51.588;7.002;2023-04-09T10:02:22;101760.00;;;23.75;22.85
78337;BME280;67610;51.588;7.002;2023-04-09T10:04:49;101751.44;;;23.97;23.88
78337;BME280;67610;51.588;7.002;2023-04-09T10:07:19;101760.53;;;23.96;22.92
78337;BME280;67610;51.588;7.002;2023-04-09T10:09:48;101755.44;;;23.69;23.77
78337;BME280;67610;51.588;7.002;2023-04-09T10:12:15;101760.19;;;23.67;24.10
78337;BME280;67610;51.588;7.002;2023-04-09T10:14:41;101748.84;;;23.65;24.39
78337;BME280;67610;51.588;7.002;2023-04-09T10:17:07;101753.00;;;23.54;24.61
78337;BME280;67610;51.588;7.002;2023-04-09T10:19:38;101758.75;;;23.64;23.12
78337;BME280;67610;51.588;7.002;2023-04-09T10:22:11;101747.59;;;23.67;23.08
78337;BME280;67610;51.588;7.002;2023-04-09T10:24:38;101739.34;;;23.23;23.24
78337;BME280;67610;51.588;7.002;2023-04-09T10:27:11;101748.22;;;23.04;23.46
78337;BME280;67610;51.588;7.002;2023-04-09T10:29:42;101737.72;;;22.96;23.34
78337;BME280;67610;51.588;7.002;2023-04-09T10:32:09;101732.34;;;22.89;23.46
78337;BME280;67610;51.588;7.002;2023-04-09T10:34:40;101733.19;;;22.89;23.14
78337;BME280;67610;51.588;7.002;2023-04-09T10:37:07;101728.63;;;22.83;23.25
78337;BME280;67610;51.588;7.002;2023-04-09T10:39:43;101735.31;;;22.40;23.08
78337;BME280;67610;51.588;7.002;2023-04-09T10:42:23;101727.13;;;21.94;24.43
78337;BME280;67610;51.588;7.002;2023-04-09T10:45:10;101734.25;;;21.81;24.55
78337;BME280;67610;51.588;7.002;2023-04-09T10:47:37;101738.28;;;21.70;24.98
78337;BME280;67610;51.588;7.002;2023-04-09T10:52:45;101730.63;;;21.67;24.83
78337;BME280;67610;51.588;7.002;2023-04-09T10:55:38;101726.28;;;21.94;24.87
78337;BME280;67610;51.588;7.002;2023-04-09T10:58:10;101725.75;;;22.18;24.39
78337;BME280;67610;51.588;7.002;2023-04-09T11:00:38;101722.78;;;22.54;24.12
78337;BME280;67610;51.588;7.002;2023-04-09T11:06:03;101729.88;;;22.94;24.21
78337;BME280;67610;51.588;7.002;2023-04-09T11:08:31;101723.47;;;23.21;24.12
78337;BME280;67610;51.588;7.002;2023-04-09T11:10:59;101719.97;;;23.40;23.98
78337;BME280;67610;51.588;7.002;2023-04-09T11:13:26;101709.84;;;23.36;24.23
78337;BME280;67610;51.588;7.002;2023-04-09T11:15:53;101708.59;;;22.99;24.11
78337;BME280;67610;51.588;7.002;2023-04-09T11:18:22;101718.72;;;22.84;24.45
78337;BME280;67610;51.588;7.002;2023-04-09T11:20:48;101709.66;;;22.91;24.38
78337;BME280;67610;51.588;7.002;2023-04-09T11:23:14;101705.53;;;22.89;24.25
78337;BME280;67610;51.588;7.002;2023-04-09T11:25:40;101704.63;;;22.49;24.61
78337;BME280;67610;51.588;7.002;2023-04-09T11:28:06;101702.91;;;22.22;24.29
78337;BME280;67610;51.588;7.002;2023-04-09T11:30:33;101704.66;;;22.02;24.95
78337;BME280;67610;51.588;7.002;2023-04-09T11:33:00;101708.38;;;21.94;24.98
78337;BME280;67610;51.588;7.002;2023-04-09T11:35:26;101705.94;;;21.72;24.87
78337;BME280;67610;51.588;7.002;2023-04-09T11:37:53;101699.00;;;21.43;25.23
78337;BME280;67610;51.588;7.002;2023-04-09T11:40:20;101692.91;;;21.28;25.78
78337;BME280;67610;51.588;7.002;2023-04-09T11:42:48;101692.03;;;21.21;25.33
78337;BME280;67610;51.588;7.002;2023-04-09T11:45:15;101691.22;;;21.20;25.49
78337;BME280;67610;51.588;7.002;2023-04-09T11:47:42;101677.44;;;21.23;25.46
78337;BME280;67610;51.588;7.002;2023-04-09T11:50:09;101676.72;;;21.08;25.58
78337;BME280;67610;51.588;7.002;2023-04-09T11:52:36;101677.34;;;20.89;26.01
78337;BME280;67610;51.588;7.002;2023-04-09T11:55:03;101674.94;;;20.94;26.10
78337;BME280;67610;51.588;7.002;2023-04-09T11:57:43;101679.84;;;20.91;26.00
78337;BME280;67610;51.588;7.002;2023-04-09T12:00:10;101672.84;;;20.89;25.83
78337;BME280;67610;51.588;7.002;2023-04-09T12:02:37;101672.19;;;20.60;26.14
78337;BME280;67610;51.588;7.002;2023-04-09T12:05:03;101680.97;;;20.33;26.42
78337;BME280;67610;51.588;7.002;2023-04-09T12:07:32;101680.69;;;20.13;26.65
78337;BME280;67610;51.588;7.002;2023-04-09T12:10:03;101676.03;;;20.00;26.67
78337;BME280;67610;51.588;7.002;2023-04-09T12:12:28;101673.09;;;19.95;27.06
78337;BME280;67610;51.588;7.002;2023-04-09T12:14:54;101667.47;;;20.05;27.13
78337;BME280;67610;51.588;7.002;2023-04-09T12:17:24;101668.91;;;20.07;26.69
78337;BME280;67610;51.588;7.002;2023-04-09T12:19:49;101675.66;;;20.03;26.85
78337;BME280;67610;51.588;7.002;2023-04-09T12:22:15;101673.19;;;19.87;26.40
78337;BME280;67610;51.588;7.002;2023-04-09T12:24:40;101677.53;;;19.59;27.16
78337;BME280;67610;51.588;7.002;2023-04-09T12:27:05;101679.75;;;19.41;27.42
78337;BME280;67610;51.588;7.002;2023-04-09T12:29:31;101673.13;;;19.37;27.50
78337;BME280;67610;51.588;7.002;2023-04-09T12:31:57;101671.44;;;19.21;27.73
78337;BME280;67610;51.588;7.002;2023-04-09T12:34:24;101683.47;;;19.03;28.46
78337;BME280;67610;51.588;7.002;2023-04-09T12:36:51;101675.81;;;19.00;28.59
78337;BME280;67610;51.588;7.002;2023-04-09T12:39:16;101669.75;;;19.06;28.22
78337;BME280;67610;51.588;7.002;2023-04-09T12:41:41;101663.72;;;19.12;28.59
78337;BME280;67610;51.588;7.002;2023-04-09T12:44:07;101667.31;;;19.19;27.83
78337;BME280;67610;51.588;7.002;2023-04-09T12:46:32;101669.38;;;19.09;28.24
78337;BME280;67610;51.588;7.002;2023-04-09T12:48:58;101665.03;;;18.93;28.73
78337;BME280;67610;51.588;7.002;2023-04-09T12:51:23;101671.75;;;18.89;28.31
78337;BME280;67610;51.588;7.002;2023-04-09T12:53:49;101666.91;;;18.70;28.53
78337;BME280;67610;51.588;7.002;2023-04-09T12:56:15;101674.16;;;18.61;28.65
78337;BME280;67610;51.588;7.002;2023-04-09T12:58:40;101665.44;;;18.67;28.50
78337;BME280;67610;51.588;7.002;2023-04-09T13:01:05;101669.78;;;18.68;28.99
78337;BME280;67610;51.588;7.002;2023-04-09T13:03:31;101671.28;;;18.86;28.78
78337;BME280;67610;51.588;7.002;2023-04-09T13:05:58;101666.19;;;18.76;28.88